createdAt,value
2023-03-21T00:00:42.367Z,41.53
2023-03-21T00:03:09.150Z,38.15
2023-03-21T00:05:43.248Z,42.75
2023-03-21T00:08:09.778Z,41.33
2023-03-21T00:13:22.981Z,43.40
2023-03-21T00:16:05.131Z,44.53
2023-03-21T00:18:46.449Z,44.28
2023-03-21T00:24:02.431Z,42.03
2023-03-21T00:26:29.061Z,46.33
2023-03-21T00:28:55.613Z,41.65
2023-03-21T00:31:22.171Z,38.97
2023-03-21T00:33:48.708Z,46.80
2023-03-21T00:36:15.992Z,31.90
2023-03-21T00:38:43.127Z,38.70
2023-03-21T00:41:21.358Z,33.53
2023-03-21T00:43:55.644Z,51.35
2023-03-21T00:46:25.253Z,34.67
2023-03-21T00:48:52.242Z,42.60
2023-03-21T00:51:26.007Z,45.72
2023-03-21T00:53:57.993Z,43.42
2023-03-21T00:56:24.719Z,35.88
2023-03-21T00:58:51.339Z,44.85
2023-03-21T01:01:18.441Z,47.15
2023-03-21T01:03:50.852Z,44.40
2023-03-21T01:06:19.672Z,34.70
2023-03-21T01:08:53.186Z,39.30
2023-03-21T01:11:26.085Z,38.70
2023-03-21T01:13:57.958Z,39.72
2023-03-21T01:16:28.530Z,40.10
2023-03-21T01:18:56.169Z,39.25
2023-03-21T01:21:23.138Z,39.97
2023-03-21T01:23:49.790Z,41.63
2023-03-21T01:26:16.741Z,44.40
2023-03-21T01:28:44.087Z,44.13
2023-03-21T01:31:13.637Z,39.88
2023-03-21T01:33:41.001Z,40.35
2023-03-21T01:36:13.212Z,45.25
2023-03-21T01:38:41.757Z,39.63
2023-03-21T01:41:20.113Z,44.15
2023-03-21T01:43:47.577Z,44.28
2023-03-21T01:46:51.516Z,40.17
2023-03-21T01:49:27.640Z,40.20
2023-03-21T01:52:11.533Z,46.33
2023-03-21T01:54:41.211Z,46.45
2023-03-21T01:57:22.539Z,38.22
2023-03-21T01:59:54.288Z,51.88
2023-03-21T02:02:27.136Z,43.78
2023-03-21T02:04:58.157Z,49.97
2023-03-21T02:07:32.025Z,42.60
2023-03-21T02:09:59.439Z,45.67
2023-03-21T02:12:27.560Z,37.50
2023-03-21T02:14:55.660Z,45.17
2023-03-21T02:17:48.454Z,40.97
2023-03-21T02:20:36.603Z,36.17
2023-03-21T02:23:18.014Z,41.30
2023-03-21T02:26:03.330Z,33.13
2023-03-21T02:28:53.549Z,35.30
2023-03-21T02:31:45.835Z,35.45
2023-03-21T02:34:32.635Z,30.48
2023-03-21T02:37:28.968Z,34.55
2023-03-21T02:40:30.859Z,37.60
2023-03-21T02:43:35.314Z,38.20
2023-03-21T02:46:10.636Z,33.28
2023-03-21T02:48:51.972Z,34.55
2023-03-21T02:51:22.844Z,33.72
2023-03-21T02:54:27.873Z,35.22
2023-03-21T02:56:52.742Z,32.03
2023-03-21T02:59:22.873Z,41.97
2023-03-21T03:01:52.236Z,39.60
2023-03-21T03:04:27.401Z,34.30
2023-03-21T03:07:18.092Z,37.13
2023-03-21T03:09:57.386Z,39.53
2023-03-21T03:12:48.012Z,36.20
2023-03-21T03:16:01.214Z,33.50
2023-03-21T03:18:39.893Z,37.65
2023-03-21T03:21:15.653Z,37.08
2023-03-21T03:23:42.236Z,34.40
2023-03-21T03:26:15.699Z,38.53
2023-03-21T03:28:48.471Z,40.53
2023-03-21T03:31:21.850Z,34.90
2023-03-21T03:33:52.225Z,42.10
2023-03-21T03:36:31.622Z,41.55
2023-03-21T03:39:01.080Z,38.00
2023-03-21T03:41:29.965Z,35.70
2023-03-21T03:44:01.332Z,35.17
2023-03-21T03:46:36.128Z,34.35
2023-03-21T03:49:12.041Z,31.38
2023-03-21T03:51:53.065Z,25.45
2023-03-21T03:54:24.576Z,23.98
2023-03-21T03:56:51.505Z,29.58
2023-03-21T03:59:25.181Z,29.00
2023-03-21T04:01:52.137Z,29.17
2023-03-21T04:04:18.800Z,33.90
2023-03-21T04:06:51.562Z,31.83
2023-03-21T04:09:22.106Z,30.88
2023-03-21T04:11:51.786Z,31.17
2023-03-21T04:14:18.427Z,30.40
2023-03-21T04:16:45.051Z,34.35
2023-03-21T04:19:11.627Z,34.75
2023-03-21T04:21:38.800Z,32.25
2023-03-21T04:24:07.385Z,28.15
2023-03-21T04:26:35.886Z,31.42
2023-03-21T04:29:03.431Z,28.75
2023-03-21T04:31:31.431Z,30.58
2023-03-21T04:33:59.605Z,26.38
2023-03-21T04:36:30.786Z,26.80
2023-03-21T04:39:01.609Z,30.60
2023-03-21T04:41:28.765Z,24.30
2023-03-21T04:43:56.555Z,26.55
2023-03-21T04:46:23.977Z,22.10
2023-03-21T04:48:50.710Z,23.13
2023-03-21T04:51:17.301Z,28.52
2023-03-21T04:53:45.902Z,25.63
2023-03-21T04:56:13.098Z,33.35
2023-03-21T04:58:40.717Z,29.25
2023-03-21T05:01:08.116Z,27.17
2023-03-21T05:03:39.990Z,32.28
2023-03-21T05:06:09.968Z,31.42
2023-03-21T05:08:37.234Z,31.75
2023-03-21T05:11:04.392Z,26.98
2023-03-21T05:13:31.040Z,32.35
2023-03-21T05:15:57.600Z,34.22
2023-03-21T05:18:27.215Z,30.00
2023-03-21T05:20:54.246Z,30.00
2023-03-21T05:23:24.495Z,30.58
2023-03-21T05:25:51.543Z,34.80
2023-03-21T05:28:20.849Z,30.75
2023-03-21T05:30:47.566Z,33.50
2023-03-21T05:33:14.335Z,32.45
2023-03-21T05:35:41.175Z,30.38
2023-03-21T05:38:08.175Z,29.15
2023-03-21T05:40:34.782Z,31.27
2023-03-21T05:43:01.438Z,29.42
2023-03-21T05:45:28.054Z,27.67
2023-03-21T05:47:54.692Z,36.22
2023-03-21T05:50:21.259Z,31.45
2023-03-21T05:52:47.815Z,29.80
2023-03-21T05:55:14.533Z,34.83
2023-03-21T05:57:41.140Z,30.80
2023-03-21T06:00:09.229Z,37.40
2023-03-21T06:02:35.963Z,33.45
2023-03-21T06:05:02.548Z,36.13
2023-03-21T06:07:29.220Z,36.35
2023-03-21T06:09:55.817Z,34.60
2023-03-21T06:12:22.421Z,38.30
2023-03-21T06:14:48.984Z,33.00
2023-03-21T06:17:15.923Z,32.88
2023-03-21T06:19:42.645Z,31.90
2023-03-21T06:22:09.309Z,27.20
2023-03-21T06:24:35.982Z,28.20
2023-03-21T06:27:04.082Z,26.55
2023-03-21T06:29:31.314Z,26.17
2023-03-21T06:31:58.041Z,25.52
2023-03-21T06:34:24.652Z,24.52
2023-03-21T06:36:52.198Z,21.92
2023-03-21T06:39:18.850Z,26.55
2023-03-21T06:41:45.489Z,28.92
2023-03-21T06:44:12.164Z,24.27
2023-03-21T06:46:38.827Z,26.00
2023-03-21T06:49:05.575Z,26.02
2023-03-21T06:51:32.243Z,24.45
2023-03-21T06:53:58.845Z,28.88
2023-03-21T06:56:25.430Z,27.60
2023-03-21T06:58:52.019Z,28.83
2023-03-21T07:01:18.751Z,26.77
2023-03-21T07:03:45.407Z,28.67
2023-03-21T07:06:13.445Z,25.67
2023-03-21T07:08:41.530Z,25.05
2023-03-21T07:11:09.186Z,26.60
2023-03-21T07:13:36.095Z,24.55
2023-03-21T07:16:02.888Z,25.20
2023-03-21T07:18:30.919Z,28.38
2023-03-21T07:20:57.659Z,32.40
2023-03-21T07:23:25.894Z,26.00
2023-03-21T07:25:53.407Z,27.48
2023-03-21T07:28:21.433Z,23.55
2023-03-21T07:30:56.951Z,25.88
2023-03-21T07:33:24.777Z,27.77
2023-03-21T07:35:53.073Z,25.37
2023-03-21T07:38:20.445Z,28.27
2023-03-21T07:40:48.408Z,27.33
2023-03-21T07:43:16.073Z,26.33
2023-03-21T07:45:43.769Z,25.70
2023-03-21T07:48:13.026Z,24.60
2023-03-21T07:50:40.955Z,30.35
2023-03-21T07:53:08.170Z,26.48
2023-03-21T07:55:35.495Z,26.88
2023-03-21T07:58:03.634Z,28.55
2023-03-21T08:00:30.420Z,28.98
2023-03-21T08:02:58.981Z,32.63
2023-03-21T08:05:33.325Z,23.63
2023-03-21T08:08:00.698Z,25.13
2023-03-21T08:10:28.219Z,26.92
2023-03-21T08:12:55.082Z,30.60
2023-03-21T08:15:21.908Z,28.05
2023-03-21T08:17:48.497Z,28.95
2023-03-21T08:20:18.078Z,32.35
2023-03-21T08:22:45.158Z,33.80
2023-03-21T08:25:13.998Z,32.05
2023-03-21T08:27:42.400Z,31.30
2023-03-21T08:30:14.497Z,32.75
2023-03-21T08:32:42.242Z,34.75
2023-03-21T08:35:11.413Z,33.27
2023-03-21T08:37:38.816Z,31.63
2023-03-21T08:40:09.100Z,35.00
2023-03-21T08:42:35.710Z,36.58
2023-03-21T08:45:02.463Z,31.65
2023-03-21T08:47:29.046Z,30.15
2023-03-21T08:49:58.631Z,28.45
2023-03-21T08:52:27.174Z,30.05
2023-03-21T08:54:54.726Z,30.65
2023-03-21T08:57:21.622Z,32.35
2023-03-21T08:59:48.277Z,31.95
2023-03-21T09:02:16.334Z,27.83
2023-03-21T09:04:43.933Z,32.85
2023-03-21T09:07:12.557Z,38.03
2023-03-21T09:09:39.470Z,37.67
2023-03-21T09:12:06.202Z,34.85
2023-03-21T09:14:34.664Z,31.45
2023-03-21T09:17:01.228Z,37.63
2023-03-21T09:19:28.316Z,37.15
2023-03-21T09:21:55.793Z,29.75
2023-03-21T09:24:22.878Z,28.23
2023-03-21T09:26:52.649Z,33.65
2023-03-21T09:29:20.997Z,32.90
2023-03-21T09:31:48.338Z,31.45
2023-03-21T09:34:15.675Z,32.17
2023-03-21T09:36:44.163Z,29.67
2023-03-21T09:39:12.000Z,28.50
2023-03-21T09:42:00.052Z,32.20
2023-03-21T09:47:14.041Z,34.30
2023-03-21T09:49:49.147Z,35.70
2023-03-21T09:52:27.119Z,35.45
2023-03-21T09:54:55.610Z,34.47
2023-03-21T09:57:36.904Z,38.92
2023-03-21T10:00:14.525Z,33.22
2023-03-21T10:02:48.047Z,36.95
2023-03-21T10:05:26.087Z,36.58
2023-03-21T10:08:09.222Z,37.65
2023-03-21T10:10:43.758Z,38.78
2023-03-21T10:13:35.486Z,39.00
2023-03-21T10:16:14.155Z,34.72
2023-03-21T10:18:42.630Z,37.65
2023-03-21T10:21:37.347Z,41.22
2023-03-21T10:24:04.852Z,40.50
2023-03-21T10:26:31.548Z,37.55
2023-03-21T10:29:02.040Z,33.15
2023-03-21T10:31:30.155Z,34.72
2023-03-21T10:34:02.573Z,40.47
2023-03-21T10:36:32.066Z,40.15
2023-03-21T10:38:58.685Z,39.85
2023-03-21T10:41:25.518Z,42.05
2023-03-21T10:44:16.621Z,40.97
2023-03-21T10:46:58.248Z,38.22
2023-03-21T10:49:26.760Z,37.75
2023-03-21T10:54:31.297Z,40.08
2023-03-21T10:57:05.016Z,39.53
2023-03-21T11:00:15.779Z,38.92
2023-03-21T11:02:43.208Z,39.85
2023-03-21T11:05:36.832Z,37.83
2023-03-21T11:08:06.897Z,40.83
2023-03-21T11:10:38.125Z,42.58
2023-03-21T11:13:38.638Z,39.65
2023-03-21T11:16:23.647Z,43.38
2023-03-21T11:18:52.254Z,44.13
2023-03-21T11:21:19.125Z,42.70
2023-03-21T11:23:49.454Z,42.67
2023-03-21T11:26:36.672Z,48.40
2023-03-21T11:29:22.692Z,46.28
2023-03-21T11:31:49.272Z,45.08
2023-03-21T11:34:41.622Z,35.70
2023-03-21T11:37:19.473Z,33.72
2023-03-21T11:39:46.364Z,40.22
2023-03-21T11:42:40.694Z,37.53
2023-03-21T11:45:21.661Z,28.05
2023-03-21T11:47:50.585Z,32.03
2023-03-21T11:50:19.247Z,35.15
2023-03-21T11:53:10.655Z,36.63
2023-03-21T11:55:43.505Z,27.05
2023-03-21T11:58:28.459Z,21.30
2023-03-21T12:01:21.082Z,24.00
2023-03-21T12:04:09.714Z,17.25
2023-03-21T12:06:36.782Z,23.73
2023-03-21T12:09:13.168Z,27.13
2023-03-21T12:11:57.754Z,26.73
2023-03-21T12:14:24.290Z,29.13
2023-03-21T12:17:10.721Z,28.20
2023-03-21T12:19:53.381Z,30.00
2023-03-21T12:22:26.148Z,31.13
2023-03-21T12:24:58.911Z,29.98
2023-03-21T12:27:31.181Z,26.83
2023-03-21T12:30:17.029Z,25.95
2023-03-21T12:33:22.837Z,23.67
2023-03-21T12:36:05.556Z,22.98
2023-03-21T12:38:54.960Z,24.52
2023-03-21T12:41:40.500Z,19.30
2023-03-21T12:44:17.702Z,17.77
2023-03-21T12:46:59.424Z,16.77
2023-03-21T12:49:28.702Z,17.75
2023-03-21T12:52:01.786Z,17.25
2023-03-21T12:54:54.480Z,18.30
2023-03-21T12:57:56.351Z,20.27
2023-03-21T13:00:34.168Z,19.40
2023-03-21T13:03:06.585Z,16.63
2023-03-21T13:05:35.752Z,17.15
2023-03-21T13:08:08.116Z,14.98
2023-03-21T13:10:34.704Z,21.98
2023-03-21T13:13:17.605Z,26.98
2023-03-21T13:15:52.684Z,25.30
2023-03-21T13:18:43.386Z,25.50
2023-03-21T13:21:19.624Z,35.13
2023-03-21T13:24:01.371Z,21.75
2023-03-21T13:26:52.204Z,29.55
2023-03-21T13:29:46.356Z,28.50
2023-03-21T13:32:19.982Z,26.35
2023-03-21T13:34:55.399Z,28.88
2023-03-21T13:37:25.249Z,25.65
2023-03-21T13:39:52.185Z,25.67
2023-03-21T13:42:32.308Z,24.10
2023-03-21T13:45:06.067Z,31.52
2023-03-21T13:47:40.854Z,26.77
2023-03-21T13:50:28.168Z,25.50
2023-03-21T13:53:03.961Z,25.58
2023-03-21T13:55:36.642Z,26.38
2023-03-21T13:58:24.937Z,26.23
2023-03-21T14:01:23.676Z,27.45
2023-03-21T14:03:50.774Z,26.05
2023-03-21T14:06:19.054Z,26.52
2023-03-21T14:08:48.988Z,25.00
2023-03-21T14:11:20.040Z,26.70
2023-03-21T14:13:51.375Z,24.40
2023-03-21T14:16:20.412Z,29.60
2023-03-21T14:18:57.438Z,24.48
2023-03-21T14:21:27.105Z,25.67
2023-03-21T14:24:05.577Z,26.50
2023-03-21T14:26:36.095Z,24.75
2023-03-21T14:29:09.698Z,27.13
2023-03-21T14:31:42.349Z,24.63
2023-03-21T14:34:10.506Z,23.77
2023-03-21T14:36:43.209Z,27.90
2023-03-21T14:39:20.312Z,25.15
2023-03-21T14:41:50.388Z,25.80
2023-03-21T14:44:26.562Z,24.75
2023-03-21T14:47:17.787Z,26.15
2023-03-21T14:49:45.364Z,24.52
2023-03-21T14:52:16.172Z,33.17
2023-03-21T14:54:45.298Z,23.27
2023-03-21T14:57:15.450Z,23.52
2023-03-21T14:59:42.645Z,23.42
2023-03-21T15:02:19.376Z,23.73
2023-03-21T15:04:50.605Z,25.33
2023-03-21T15:07:28.997Z,25.48
2023-03-21T15:12:24.099Z,23.00
2023-03-21T15:14:51.053Z,23.15
2023-03-21T15:17:18.127Z,23.55
2023-03-21T15:19:44.810Z,22.88
2023-03-21T15:22:29.369Z,27.85
2023-03-21T15:25:00.646Z,22.67
2023-03-21T15:27:29.681Z,25.42
2023-03-21T15:29:56.900Z,25.80
2023-03-21T15:32:27.526Z,26.98
2023-03-21T15:34:56.613Z,20.70
2023-03-21T15:37:28.594Z,25.48
2023-03-21T15:40:28.805Z,25.85
2023-03-21T15:43:15.959Z,25.00
2023-03-21T15:45:54.750Z,18.13
2023-03-21T15:48:25.371Z,20.63
2023-03-21T15:51:06.193Z,21.58
2023-03-21T15:53:35.473Z,22.58
2023-03-21T15:56:05.945Z,21.92
2023-03-21T15:58:42.902Z,21.98
2023-03-21T16:01:20.916Z,27.38
2023-03-21T16:03:55.049Z,26.48
2023-03-21T16:06:35.687Z,21.48
2023-03-21T16:09:08.680Z,24.33
2023-03-21T16:11:43.926Z,26.02
2023-03-21T16:14:10.765Z,23.65
2023-03-21T16:16:38.384Z,22.30
2023-03-21T16:19:07.215Z,23.13
2023-03-21T16:21:35.329Z,23.50
2023-03-21T16:24:02.326Z,23.98
2023-03-21T16:26:32.696Z,29.05
2023-03-21T16:29:00.226Z,27.95
2023-03-21T16:31:30.014Z,30.23
2023-03-21T16:33:56.962Z,33.47
2023-03-21T16:36:27.296Z,24.85
2023-03-21T16:38:55.095Z,19.80
2023-03-21T16:41:23.812Z,22.10
2023-03-21T16:46:19.613Z,20.27
2023-03-21T16:48:50.034Z,27.85
2023-03-21T16:53:49.321Z,21.05
2023-03-21T16:56:20.331Z,21.17
2023-03-21T16:58:47.474Z,25.65
2023-03-21T17:01:15.715Z,28.00
2023-03-21T17:03:42.999Z,21.55
2023-03-21T17:06:18.121Z,25.02
2023-03-21T17:08:44.835Z,23.63
2023-03-21T17:11:13.647Z,22.35
2023-03-21T17:13:40.199Z,25.60
2023-03-21T17:16:07.207Z,21.75
2023-03-21T17:18:33.747Z,31.00
2023-03-21T17:21:00.633Z,26.63
2023-03-21T17:23:27.291Z,23.60
2023-03-21T17:25:54.943Z,28.05
2023-03-21T17:28:21.530Z,25.55
2023-03-21T17:30:48.151Z,28.75
2023-03-21T17:33:15.410Z,24.95
2023-03-21T17:35:42.110Z,30.52
2023-03-21T17:38:15.560Z,24.75
2023-03-21T17:40:42.460Z,32.65
2023-03-21T17:43:16.993Z,27.95
2023-03-21T17:45:43.621Z,30.45
2023-03-21T17:48:10.371Z,35.58
2023-03-21T17:50:39.349Z,32.58
2023-03-21T17:53:07.411Z,27.10
2023-03-21T17:55:35.201Z,27.90
2023-03-21T17:58:02.390Z,28.67
2023-03-21T18:00:30.690Z,28.85
2023-03-21T18:02:57.278Z,37.60
2023-03-21T18:05:25.348Z,23.17
2023-03-21T18:10:40.655Z,32.60
2023-03-21T18:13:08.016Z,29.75
2023-03-21T18:15:35.943Z,31.35
2023-03-21T18:18:04.615Z,38.20
2023-03-21T18:23:19.102Z,36.83
2023-03-21T18:25:45.921Z,34.53
2023-03-21T18:28:13.203Z,30.52
2023-03-21T18:31:07.062Z,33.87
2023-03-21T18:33:28.694Z,31.17
2023-03-21T18:35:59.658Z,32.60
2023-03-21T18:38:27.820Z,27.70
2023-03-21T18:40:55.582Z,34.93
2023-03-21T18:46:09.475Z,30.80
2023-03-21T18:48:39.360Z,28.50
2023-03-21T18:51:06.164Z,35.03
2023-03-21T18:53:32.719Z,29.25
2023-03-21T18:55:59.322Z,32.90
2023-03-21T18:58:28.092Z,34.47
2023-03-21T19:03:35.430Z,28.33
2023-03-21T19:06:04.952Z,33.17
2023-03-21T19:08:32.432Z,25.48
2023-03-21T19:11:03.718Z,36.97
2023-03-21T19:13:33.394Z,34.38
2023-03-21T19:16:02.500Z,39.80
2023-03-21T19:18:50.365Z,30.92
2023-03-21T19:21:17.100Z,33.10
2023-03-21T19:24:20.832Z,36.85
2023-03-21T19:26:30.897Z,33.05
2023-03-21T19:28:57.639Z,28.33
2023-03-21T19:31:24.690Z,31.65
2023-03-21T19:33:51.583Z,32.42
2023-03-21T19:36:22.542Z,38.28
2023-03-21T19:38:50.521Z,37.13
2023-03-21T19:41:18.688Z,35.22
2023-03-21T19:43:54.044Z,40.33
2023-03-21T19:46:25.129Z,38.55
2023-03-21T19:48:56.443Z,37.13
2023-03-21T19:51:29.184Z,28.13
2023-03-21T19:53:56.529Z,38.25
2023-03-21T19:56:26.759Z,36.95
2023-03-21T19:58:54.943Z,39.85
2023-03-21T20:01:22.283Z,39.03
2023-03-21T20:03:48.956Z,35.45
2023-03-21T20:06:16.255Z,36.47
2023-03-21T20:09:13.584Z,32.95
2023-03-21T20:11:29.399Z,40.88
2023-03-21T20:13:56.356Z,32.45
2023-03-21T20:16:23.121Z,37.40
2023-03-21T20:18:49.824Z,34.28
2023-03-21T20:21:18.480Z,34.80
2023-03-21T20:23:50.970Z,35.63
2023-03-21T20:26:18.431Z,35.42
2023-03-21T20:28:59.759Z,38.00
2023-03-21T20:31:34.299Z,38.75
2023-03-21T20:34:01.055Z,37.75
2023-03-21T20:36:43.736Z,33.60
2023-03-21T20:39:11.141Z,35.40
2023-03-21T20:41:38.179Z,33.78
2023-03-21T20:46:51.968Z,37.47
2023-03-21T20:49:20.981Z,42.63
2023-03-21T20:54:35.134Z,41.78
2023-03-21T20:57:02.567Z,40.28
2023-03-21T20:59:29.657Z,38.60
2023-03-21T21:01:57.399Z,37.65
2023-03-21T21:04:46.920Z,35.63
2023-03-21T21:07:16.060Z,31.63
2023-03-21T21:09:46.777Z,44.28
2023-03-21T21:12:15.211Z,33.25
2023-03-21T21:14:42.746Z,37.90
2023-03-21T21:17:24.557Z,29.65
2023-03-21T21:19:56.875Z,35.50
2023-03-21T21:22:23.717Z,35.97
2023-03-21T21:24:50.311Z,33.95
2023-03-21T21:27:16.978Z,33.30
2023-03-21T21:29:45.052Z,34.75
2023-03-21T21:32:11.585Z,32.28
2023-03-21T21:34:38.399Z,35.25
2023-03-21T21:37:05.229Z,31.63
2023-03-21T21:39:35.276Z,33.50
2023-03-21T21:42:02.622Z,33.40
2023-03-21T21:44:29.475Z,32.95
2023-03-21T21:46:57.491Z,38.13
2023-03-21T21:49:24.157Z,32.80
2023-03-21T21:51:50.830Z,36.80
2023-03-21T21:54:18.224Z,37.80
2023-03-21T21:56:48.379Z,36.33
2023-03-21T21:59:18.638Z,35.20
2023-03-21T22:01:48.497Z,37.20
2023-03-21T22:04:15.465Z,36.53
2023-03-21T22:06:43.270Z,35.85
2023-03-21T22:09:10.615Z,33.78
2023-03-21T22:11:37.277Z,39.42
2023-03-21T22:14:05.174Z,34.83
2023-03-21T22:16:31.777Z,37.95
2023-03-21T22:18:58.389Z,42.60
2023-03-21T22:21:25.328Z,49.55
2023-03-21T22:23:51.964Z,45.92
2023-03-21T22:26:18.553Z,43.85
2023-03-21T22:28:45.498Z,33.90
2023-03-21T22:31:16.704Z,32.28
2023-03-21T22:33:44.304Z,34.88
2023-03-21T22:36:11.337Z,35.88
2023-03-21T22:38:38.581Z,36.75
2023-03-21T22:41:06.548Z,33.22
2023-03-21T22:43:34.424Z,38.27
2023-03-21T22:46:05.582Z,38.78
2023-03-21T22:48:32.782Z,34.42
2023-03-21T22:51:00.331Z,37.25
2023-03-21T22:53:26.939Z,39.47
2023-03-21T22:55:53.797Z,33.35
2023-03-21T22:58:21.806Z,38.33
2023-03-21T23:00:48.641Z,33.80
2023-03-21T23:03:16.861Z,34.35
2023-03-21T23:05:44.844Z,32.90
2023-03-21T23:08:12.894Z,34.88
2023-03-21T23:10:41.477Z,37.00
2023-03-21T23:15:34.933Z,31.05
2023-03-21T23:18:01.486Z,33.70
2023-03-21T23:20:28.208Z,37.75
2023-03-21T23:22:55.216Z,34.38
2023-03-21T23:25:21.942Z,31.42
2023-03-21T23:27:48.749Z,30.45
2023-03-21T23:30:15.685Z,33.92
2023-03-21T23:32:42.680Z,36.05
2023-03-21T23:35:09.634Z,35.15
2023-03-21T23:37:36.516Z,34.90
2023-03-21T23:40:06.176Z,39.83
2023-03-21T23:42:34.223Z,35.05
2023-03-21T23:45:00.997Z,34.97
2023-03-21T23:47:28.783Z,31.42
2023-03-21T23:49:55.412Z,33.75
2023-03-21T23:52:22.096Z,36.50
2023-03-21T23:54:48.701Z,37.10
2023-03-21T23:57:17.259Z,32.47
2023-03-21T23:59:46.592Z,29.60
